sensor_id;sensor_type;location;lat;lon;timestamp;temperature;humidity
17495;DHT22;8864;51.970;4.614;2024-03-23T00:52:37;17.60;81.20
17495;DHT22;8864;51.970;4.614;2024-03-23T00:55:04;17.60;81.20
17495;DHT22;8864;51.970;4.614;2024-03-23T00:57:30;17.60;81.20
17495;DHT22;8864;51.970;4.614;2024-03-23T00:59:56;17.60;81.10
17495;DHT22;8864;51.970;4.614;2024-03-23T01:02:22;17.70;81.20
17495;DHT22;8864;51.970;4.614;2024-03-23T01:04:49;17.60;81.10
17495;DHT22;8864;51.970;4.614;2024-03-23T01:07:15;17.60;81.10
17495;DHT22;8864;51.970;4.614;2024-03-23T01:09:43;17.60;81.10
17495;DHT22;8864;51.970;4.614;2024-03-23T01:12:10;17.60;81.00
17495;DHT22;8864;51.970;4.614;2024-03-23T01:14:36;17.60;80.90
17495;DHT22;8864;51.970;4.614;2024-03-23T01:17:02;17.60;80.90
17495;DHT22;8864;51.970;4.614;2024-03-23T01:19:30;17.60;80.80
17495;DHT22;8864;51.970;4.614;2024-03-23T01:21:56;17.60;80.90
17495;DHT22;8864;51.970;4.614;2024-03-23T01:24:22;17.60;80.80
17495;DHT22;8864;51.970;4.614;2024-03-23T01:26:50;17.60;80.80
17495;DHT22;8864;51.970;4.614;2024-03-23T01:29:16;17.60;80.80
17495;DHT22;8864;51.970;4.614;2024-03-23T01:31:42;17.60;80.80
17495;DHT22;8864;51.970;4.614;2024-03-23T01:34:09;17.60;80.70
17495;DHT22;8864;51.970;4.614;2024-03-23T01:36:35;17.60;80.70
17495;DHT22;8864;51.970;4.614;2024-03-23T01:39:02;17.50;80.60
17495;DHT22;8864;51.970;4.614;2024-03-23T01:41:28;17.60;80.70
17495;DHT22;8864;51.970;4.614;2024-03-23T01:43:56;17.50;80.60
17495;DHT22;8864;51.970;4.614;2024-03-23T01:46:22;17.50;80.60
17495;DHT22;8864;51.970;4.614;2024-03-23T01:48:50;17.50;80.60
17495;DHT22;8864;51.970;4.614;2024-03-23T01:51:16;17.50;80.60
17495;DHT22;8864;51.970;4.614;2024-03-23T01:53:43;17.50;80.60
17495;DHT22;8864;51.970;4.614;2024-03-23T01:56:09;17.50;80.60
17495;DHT22;8864;51.970;4.614;2024-03-23T01:58:36;17.50;80.50
17495;DHT22;8864;51.970;4.614;2024-03-23T02:01:03;17.50;81.30
17495;DHT22;8864;51.970;4.614;2024-03-23T02:03:30;17.50;80.50
17495;DHT22;8864;51.970;4.614;2024-03-23T02:05:57;17.50;80.50
17495;DHT22;8864;51.970;4.614;2024-03-23T02:08:24;17.50;80.50
17495;DHT22;8864;51.970;4.614;2024-03-23T02:10:50;17.50;80.70
17495;DHT22;8864;51.970;4.614;2024-03-23T02:13:18;17.50;80.40
17495;DHT22;8864;51.970;4.614;2024-03-23T02:15:44;17.50;80.30
17495;DHT22;8864;51.970;4.614;2024-03-23T02:18:13;17.50;80.40
17495;DHT22;8864;51.970;4.614;2024-03-23T02:20:38;17.50;80.40
17495;DHT22;8864;51.970;4.614;2024-03-23T02:23:13;17.50;81.10
17495;DHT22;8864;51.970;4.614;2024-03-23T02:25:39;17.40;80.30
17495;DHT22;8864;51.970;4.614;2024-03-23T02:28:06;17.40;80.30
17495;DHT22;8864;51.970;4.614;2024-03-23T02:30:33;17.40;80.30
17495;DHT22;8864;51.970;4.614;2024-03-23T02:32:58;17.40;80.30
17495;DHT22;8864;51.970;4.614;2024-03-23T02:35:25;17.40;80.30
17495;DHT22;8864;51.970;4.614;2024-03-23T02:37:51;17.40;80.30
17495;DHT22;8864;51.970;4.614;2024-03-23T02:40:20;17.40;81.00
17495;DHT22;8864;51.970;4.614;2024-03-23T02:42:46;17.40;80.20
17495;DHT22;8864;51.970;4.614;2024-03-23T02:45:13;17.40;80.20
17495;DHT22;8864;51.970;4.614;2024-03-23T02:47:39;17.40;80.20
17495;DHT22;8864;51.970;4.614;2024-03-23T02:50:07;17.40;80.20
17495;DHT22;8864;51.970;4.614;2024-03-23T02:52:33;17.40;80.20
17495;DHT22;8864;51.970;4.614;2024-03-23T02:55:00;17.40;80.20
17495;DHT22;8864;51.970;4.614;2024-03-23T02:57:29;17.30;80.20
17495;DHT22;8864;51.970;4.614;2024-03-23T02:59:55;17.30;80.10
17495;DHT22;8864;51.970;4.614;2024-03-23T03:02:21;17.30;80.10
17495;DHT22;8864;51.970;4.614;2024-03-23T03:04:48;17.30;80.10
17495;DHT22;8864;51.970;4.614;2024-03-23T03:07:14;17.30;80.00
17495;DHT22;8864;51.970;4.614;2024-03-23T03:09:41;17.30;80.00
17495;DHT22;8864;51.970;4.614;2024-03-23T03:12:07;17.30;80.00
17495;DHT22;8864;51.970;4.614;2024-03-23T03:14:35;17.30;80.00
17495;DHT22;8864;51.970;4.614;2024-03-23T03:17:01;17.30;80.00
17495;DHT22;8864;51.970;4.614;2024-03-23T03:19:28;17.30;80.00
17495;DHT22;8864;51.970;4.614;2024-03-23T03:21:54;17.30;80.00
17495;DHT22;8864;51.970;4.614;2024-03-23T03:24:21;17.30;80.00
17495;DHT22;8864;51.970;4.614;2024-03-23T03:26:47;17.30;79.90
17495;DHT22;8864;51.970;4.614;2024-03-23T03:29:15;17.30;79.90
17495;DHT22;8864;51.970;4.614;2024-03-23T03:31:42;17.30;79.90
17495;DHT22;8864;51.970;4.614;2024-03-23T03:34:10;17.30;79.90
17495;DHT22;8864;51.970;4.614;2024-03-23T03:36:35;17.30;79.90
17495;DHT22;8864;51.970;4.614;2024-03-23T03:39:02;17.20;79.80
17495;DHT22;8864;51.970;4.614;2024-03-23T03:41:29;17.20;79.80
17495;DHT22;8864;51.970;4.614;2024-03-23T03:43:56;17.20;79.80
17495;DHT22;8864;51.970;4.614;2024-03-23T03:46:21;17.20;79.70
17495;DHT22;8864;51.970;4.614;2024-03-23T03:48:50;17.30;79.80
17495;DHT22;8864;51.970;4.614;2024-03-23T03:51:15;17.30;79.80
17495;DHT22;8864;51.970;4.614;2024-03-23T03:53:43;17.20;79.70
17495;DHT22;8864;51.970;4.614;2024-03-23T03:56:09;17.20;79.70
17495;DHT22;8864;51.970;4.614;2024-03-23T03:58:36;17.20;79.60
17495;DHT22;8864;51.970;4.614;2024-03-23T04:01:02;17.20;79.60
17495;DHT22;8864;51.970;4.614;2024-03-23T04:03:29;17.20;79.60
17495;DHT22;8864;51.970;4.614;2024-03-23T04:05:57;17.20;79.60
17495;DHT22;8864;51.970;4.614;2024-03-23T04:08:24;17.20;79.60
17495;DHT22;8864;51.970;4.614;2024-03-23T04:10:50;17.20;79.50
17495;DHT22;8864;51.970;4.614;2024-03-23T04:13:17;17.20;79.50
17495;DHT22;8864;51.970;4.614;2024-03-23T04:15:43;17.20;79.40
17495;DHT22;8864;51.970;4.614;2024-03-23T04:18:10;17.20;79.40
17495;DHT22;8864;51.970;4.614;2024-03-23T04:20:36;17.20;79.40
17495;DHT22;8864;51.970;4.614;2024-03-23T04:23:04;17.20;80.10
17495;DHT22;8864;51.970;4.614;2024-03-23T04:25:30;17.20;79.40
17495;DHT22;8864;51.970;4.614;2024-03-23T04:27:58;17.20;79.40
17495;DHT22;8864;51.970;4.614;2024-03-23T04:30:24;17.20;79.30
17495;DHT22;8864;51.970;4.614;2024-03-23T04:32:53;17.20;79.30
17495;DHT22;8864;51.970;4.614;2024-03-23T04:35:19;17.10;79.30
17495;DHT22;8864;51.970;4.614;2024-03-23T04:37:47;17.20;79.30
17495;DHT22;8864;51.970;4.614;2024-03-23T04:40:16;17.20;79.30
17495;DHT22;8864;51.970;4.614;2024-03-23T04:42:43;17.10;79.30
17495;DHT22;8864;51.970;4.614;2024-03-23T04:45:10;17.10;79.20
17495;DHT22;8864;51.970;4.614;2024-03-23T04:47:37;17.10;79.20
17495;DHT22;8864;51.970;4.614;2024-03-23T04:50:04;17.20;79.20
17495;DHT22;8864;51.970;4.614;2024-03-23T04:52:31;17.10;79.10
17495;DHT22;8864;51.970;4.614;2024-03-23T04:54:58;17.10;79.10
17495;DHT22;8864;51.970;4.614;2024-03-23T04:57:26;17.10;79.10
17495;DHT22;8864;51.970;4.614;2024-03-23T04:59:52;17.20;79.10
17495;DHT22;8864;51.970;4.614;2024-03-23T05:02:19;17.10;79.00
17495;DHT22;8864;51.970;4.614;2024-03-23T05:04:46;17.10;79.10
17495;DHT22;8864;51.970;4.614;2024-03-23T05:07:12;17.10;79.00
17495;DHT22;8864;51.970;4.614;2024-03-23T05:09:39;17.10;79.00
17495;DHT22;8864;51.970;4.614;2024-03-23T05:12:05;17.20;79.00
17495;DHT22;8864;51.970;4.614;2024-03-23T05:14:34;17.10;78.90
17495;DHT22;8864;51.970;4.614;2024-03-23T05:17:00;17.10;78.90
17495;DHT22;8864;51.970;4.614;2024-03-23T05:19:26;17.10;78.80
17495;DHT22;8864;51.970;4.614;2024-03-23T05:21:52;17.10;78.80
17495;DHT22;8864;51.970;4.614;2024-03-23T05:24:20;17.10;78.80
17495;DHT22;8864;51.970;4.614;2024-03-23T05:26:47;17.10;78.80
17495;DHT22;8864;51.970;4.614;2024-03-23T05:29:14;17.10;78.90
17495;DHT22;8864;51.970;4.614;2024-03-23T05:31:44;17.10;78.80
17495;DHT22;8864;51.970;4.614;2024-03-23T05:34:11;17.10;78.80
17495;DHT22;8864;51.970;4.614;2024-03-23T05:36:36;17.10;78.80
17495;DHT22;8864;51.970;4.614;2024-03-23T05:39:03;17.00;78.80
17495;DHT22;8864;51.970;4.614;2024-03-23T05:41:30;17.10;78.90
17495;DHT22;8864;51.970;4.614;2024-03-23T05:43:56;17.00;78.80
17495;DHT22;8864;51.970;4.614;2024-03-23T05:46:22;17.10;78.80
17495;DHT22;8864;51.970;4.614;2024-03-23T05:48:51;17.00;78.70
17495;DHT22;8864;51.970;4.614;2024-03-23T05:51:17;17.00;78.70
17495;DHT22;8864;51.970;4.614;2024-03-23T05:53:45;17.10;78.80
17495;DHT22;8864;51.970;4.614;2024-03-23T05:56:10;17.00;78.60
17495;DHT22;8864;51.970;4.614;2024-03-23T05:58:37;17.00;78.60
17495;DHT22;8864;51.970;4.614;2024-03-23T06:01:03;17.10;78.80
17495;DHT22;8864;51.970;4.614;2024-03-23T06:03:30;17.00;78.60
17495;DHT22;8864;51.970;4.614;2024-03-23T06:05:58;17.10;78.80
17495;DHT22;8864;51.970;4.614;2024-03-23T06:08:25;17.00;78.60
17495;DHT22;8864;51.970;4.614;2024-03-23T06:10:51;17.00;78.60
17495;DHT22;8864;51.970;4.614;2024-03-23T06:13:18;17.10;78.70
17495;DHT22;8864;51.970;4.614;2024-03-23T06:15:44;17.00;78.70
17495;DHT22;8864;51.970;4.614;2024-03-23T06:18:12;17.00;78.70
17495;DHT22;8864;51.970;4.614;2024-03-23T06:20:38;17.00;78.70
17495;DHT22;8864;51.970;4.614;2024-03-23T06:23:06;17.00;78.60
17495;DHT22;8864;51.970;4.614;2024-03-23T06:25:32;17.00;79.40
17495;DHT22;8864;51.970;4.614;2024-03-23T06:27:59;17.00;78.60
17495;DHT22;8864;51.970;4.614;2024-03-23T06:30:27;17.00;78.60
17495;DHT22;8864;51.970;4.614;2024-03-23T06:32:55;17.00;78.70
17495;DHT22;8864;51.970;4.614;2024-03-23T06:35:21;17.00;78.60
17495;DHT22;8864;51.970;4.614;2024-03-23T06:37:47;17.10;78.50
17495;DHT22;8864;51.970;4.614;2024-03-23T06:40:15;17.00;78.40
17495;DHT22;8864;51.970;4.614;2024-03-23T06:42:42;17.00;78.30
17495;DHT22;8864;51.970;4.614;2024-03-23T06:45:08;17.00;78.20
17495;DHT22;8864;51.970;4.614;2024-03-23T06:47:36;17.00;78.20
17495;DHT22;8864;51.970;4.614;2024-03-23T06:50:03;17.10;78.20
17495;DHT22;8864;51.970;4.614;2024-03-23T06:52:30;17.00;78.00
17495;DHT22;8864;51.970;4.614;2024-03-23T06:54:57;17.00;78.00
17495;DHT22;8864;51.970;4.614;2024-03-23T06:57:25;17.10;78.00
17495;DHT22;8864;51.970;4.614;2024-03-23T06:59:51;17.00;77.90
17495;DHT22;8864;51.970;4.614;2024-03-23T07:02:18;17.00;77.80
17495;DHT22;8864;51.970;4.614;2024-03-23T07:04:44;17.00;77.90
17495;DHT22;8864;51.970;4.614;2024-03-23T07:07:11;17.00;77.90
17495;DHT22;8864;51.970;4.614;2024-03-23T07:09:37;17.00;77.90
17495;DHT22;8864;51.970;4.614;2024-03-23T07:12:04;17.00;77.90
17495;DHT22;8864;51.970;4.614;2024-03-23T07:14:32;17.10;78.50
17495;DHT22;8864;51.970;4.614;2024-03-23T07:16:59;17.10;78.20
17495;DHT22;8864;51.970;4.614;2024-03-23T07:19:25;17.10;78.20
17495;DHT22;8864;51.970;4.614;2024-03-23T07:21:52;17.10;78.30
17495;DHT22;8864;51.970;4.614;2024-03-23T07:24:18;17.10;78.50
17495;DHT22;8864;51.970;4.614;2024-03-23T07:26:45;17.10;78.50
17495;DHT22;8864;51.970;4.614;2024-03-23T07:29:11;17.10;78.40
17495;DHT22;8864;51.970;4.614;2024-03-23T07:31:39;17.10;78.30
17495;DHT22;8864;51.970;4.614;2024-03-23T07:34:05;17.10;78.20
17495;DHT22;8864;51.970;4.614;2024-03-23T07:36:32;17.10;78.00
17495;DHT22;8864;51.970;4.614;2024-03-23T07:38:58;17.10;78.00
17495;DHT22;8864;51.970;4.614;2024-03-23T07:41:25;17.10;78.40
17495;DHT22;8864;51.970;4.614;2024-03-23T07:43:53;17.10;78.50
17495;DHT22;8864;51.970;4.614;2024-03-23T07:46:20;17.10;78.60
17495;DHT22;8864;51.970;4.614;2024-03-23T07:48:48;17.00;78.70
17495;DHT22;8864;51.970;4.614;2024-03-23T07:51:17;17.10;78.70
17495;DHT22;8864;51.970;4.614;2024-03-23T07:53:44;17.10;78.90
17495;DHT22;8864;51.970;4.614;2024-03-23T07:56:11;17.10;79.30
17495;DHT22;8864;51.970;4.614;2024-03-23T07:58:38;17.10;79.10
17495;DHT22;8864;51.970;4.614;2024-03-23T08:01:06;17.10;79.00
17495;DHT22;8864;51.970;4.614;2024-03-23T08:03:33;17.00;78.80
17495;DHT22;8864;51.970;4.614;2024-03-23T08:06:08;17.00;78.80
17495;DHT22;8864;51.970;4.614;2024-03-23T08:08:35;17.00;78.70
17495;DHT22;8864;51.970;4.614;2024-03-23T08:11:02;17.00;78.60
17495;DHT22;8864;51.970;4.614;2024-03-23T08:13:29;17.00;78.60
17495;DHT22;8864;51.970;4.614;2024-03-23T08:15:57;17.00;78.80
17495;DHT22;8864;51.970;4.614;2024-03-23T08:18:23;17.00;78.60
17495;DHT22;8864;51.970;4.614;2024-03-23T08:21:00;17.10;78.80
17495;DHT22;8864;51.970;4.614;2024-03-23T08:23:29;17.00;78.60
17495;DHT22;8864;51.970;4.614;2024-03-23T08:25:57;17.00;78.60
17495;DHT22;8864;51.970;4.614;2024-03-23T08:28:24;17.00;78.60
17495;DHT22;8864;51.970;4.614;2024-03-23T08:30:51;17.00;78.50
17495;DHT22;8864;51.970;4.614;2024-03-23T08:33:17;17.00;78.50
17495;DHT22;8864;51.970;4.614;2024-03-23T08:35:53;17.00;78.50
17495;DHT22;8864;51.970;4.614;2024-03-23T08:38:21;17.10;78.60
17495;DHT22;8864;51.970;4.614;2024-03-23T08:40:56;17.00;78.40
17495;DHT22;8864;51.970;4.614;2024-03-23T08:43:23;17.00;78.50
17495;DHT22;8864;51.970;4.614;2024-03-23T08:45:49;17.00;78.60
17495;DHT22;8864;51.970;4.614;2024-03-23T08:48:18;17.00;78.60
17495;DHT22;8864;51.970;4.614;2024-03-23T08:50:46;17.00;78.70
17495;DHT22;8864;51.970;4.614;2024-03-23T08:53:12;17.00;78.70
17495;DHT22;8864;51.970;4.614;2024-03-23T08:55:39;17.10;78.80
17495;DHT22;8864;51.970;4.614;2024-03-23T08:58:07;17.10;78.70
17495;DHT22;8864;51.970;4.614;2024-03-23T09:00:34;17.10;78.80
17495;DHT22;8864;51.970;4.614;2024-03-23T09:03:01;17.10;78.80
17495;DHT22;8864;51.970;4.614;2024-03-23T09:05:28;17.10;78.80
17495;DHT22;8864;51.970;4.614;2024-03-23T09:08:01;17.10;78.80
17495;DHT22;8864;51.970;4.614;2024-03-23T09:10:27;17.10;78.80
17495;DHT22;8864;51.970;4.614;2024-03-23T09:12:54;17.00;78.70
17495;DHT22;8864;51.970;4.614;2024-03-23T09:15:21;17.00;78.60
17495;DHT22;8864;51.970;4.614;2024-03-23T09:17:48;17.00;78.50
17495;DHT22;8864;51.970;4.614;2024-03-23T09:20:14;17.00;78.30
17495;DHT22;8864;51.970;4.614;2024-03-23T09:22:41;17.00;78.30
17495;DHT22;8864;51.970;4.614;2024-03-23T09:25:07;17.00;78.20
17495;DHT22;8864;51.970;4.614;2024-03-23T09:27:35;17.10;78.20
17495;DHT22;8864;51.970;4.614;2024-03-23T09:30:00;17.00;78.10
17495;DHT22;8864;51.970;4.614;2024-03-23T09:32:29;17.10;78.10
17495;DHT22;8864;51.970;4.614;2024-03-23T09:34:55;17.00;78.00
17495;DHT22;8864;51.970;4.614;2024-03-23T09:37:21;17.10;78.10
17495;DHT22;8864;51.970;4.614;2024-03-23T09:39:47;17.00;77.90
17495;DHT22;8864;51.970;4.614;2024-03-23T09:42:14;17.00;77.90
17495;DHT22;8864;51.970;4.614;2024-03-23T09:44:40;17.00;77.90
17495;DHT22;8864;51.970;4.614;2024-03-23T09:47:08;17.00;77.70
17495;DHT22;8864;51.970;4.614;2024-03-23T09:49:35;17.00;77.60
17495;DHT22;8864;51.970;4.614;2024-03-23T09:52:03;17.00;77.60
17495;DHT22;8864;51.970;4.614;2024-03-23T09:54:29;17.00;77.60
17495;DHT22;8864;51.970;4.614;2024-03-23T09:56:58;17.00;77.40
17495;DHT22;8864;51.970;4.614;2024-03-23T09:59:24;17.10;77.40
17495;DHT22;8864;51.970;4.614;2024-03-23T10:01:52;17.10;77.20
17495;DHT22;8864;51.970;4.614;2024-03-23T10:04:38;17.10;77.20
17495;DHT22;8864;51.970;4.614;2024-03-23T10:07:11;17.10;77.20
17495;DHT22;8864;51.970;4.614;2024-03-23T10:09:37;17.10;77.30
17495;DHT22;8864;51.970;4.614;2024-03-23T10:12:08;17.10;77.30
17495;DHT22;8864;51.970;4.614;2024-03-23T10:14:35;17.10;77.40
17495;DHT22;8864;51.970;4.614;2024-03-23T10:17:12;17.10;77.50
17495;DHT22;8864;51.970;4.614;2024-03-23T10:19:40;17.00;77.50
17495;DHT22;8864;51.970;4.614;2024-03-23T10:22:09;17.00;77.50
17495;DHT22;8864;51.970;4.614;2024-03-23T10:24:35;17.00;77.40
17495;DHT22;8864;51.970;4.614;2024-03-23T10:27:02;17.00;77.40
17495;DHT22;8864;51.970;4.614;2024-03-23T10:29:28;17.00;77.30
17495;DHT22;8864;51.970;4.614;2024-03-23T10:32:08;17.00;77.40
17495;DHT22;8864;51.970;4.614;2024-03-23T10:34:34;17.00;77.30
17495;DHT22;8864;51.970;4.614;2024-03-23T10:37:03;17.00;77.30
17495;DHT22;8864;51.970;4.614;2024-03-23T10:39:32;17.00;77.30
17495;DHT22;8864;51.970;4.614;2024-03-23T10:42:04;17.00;77.30
17495;DHT22;8864;51.970;4.614;2024-03-23T10:44:31;17.00;77.20
17495;DHT22;8864;51.970;4.614;2024-03-23T10:46:58;17.00;77.10
17495;DHT22;8864;51.970;4.614;2024-03-23T10:49:30;17.00;77.30
17495;DHT22;8864;51.970;4.614;2024-03-23T10:51:58;17.00;77.30
17495;DHT22;8864;51.970;4.614;2024-03-23T10:54:26;17.00;77.30
17495;DHT22;8864;51.970;4.614;2024-03-23T10:56:56;17.00;78.30
17495;DHT22;8864;51.970;4.614;2024-03-23T10:59:23;17.10;79.10
17495;DHT22;8864;51.970;4.614;2024-03-23T11:01:54;17.10;78.80
17495;DHT22;8864;51.970;4.614;2024-03-23T11:04:30;17.10;78.40
17495;DHT22;8864;51.970;4.614;2024-03-23T11:06:58;17.10;78.00
17495;DHT22;8864;51.970;4.614;2024-03-23T11:09:41;17.10;77.20
17495;DHT22;8864;51.970;4.614;2024-03-23T11:12:30;17.00;76.80
17495;DHT22;8864;51.970;4.614;2024-03-23T11:15:00;17.00;76.50
17495;DHT22;8864;51.970;4.614;2024-03-23T11:17:28;17.00;76.30
17495;DHT22;8864;51.970;4.614;2024-03-23T11:19:55;17.00;76.20
17495;DHT22;8864;51.970;4.614;2024-03-23T11:22:39;17.00;75.80
17495;DHT22;8864;51.970;4.614;2024-03-23T11:25:14;17.10;75.80
17495;DHT22;8864;51.970;4.614;2024-03-23T11:27:42;17.00;77.40
17495;DHT22;8864;51.970;4.614;2024-03-23T11:30:16;17.10;78.50
17495;DHT22;8864;51.970;4.614;2024-03-23T11:32:44;17.00;79.80
17495;DHT22;8864;51.970;4.614;2024-03-23T11:35:11;17.00;80.20
17495;DHT22;8864;51.970;4.614;2024-03-23T11:38:05;17.10;79.00
17495;DHT22;8864;51.970;4.614;2024-03-23T11:40:32;17.10;77.90
17495;DHT22;8864;51.970;4.614;2024-03-23T11:43:01;17.00;77.30
17495;DHT22;8864;51.970;4.614;2024-03-23T11:45:27;17.00;76.20
17495;DHT22;8864;51.970;4.614;2024-03-23T11:48:08;17.00;75.60
17495;DHT22;8864;51.970;4.614;2024-03-23T11:50:36;17.00;75.10
17495;DHT22;8864;51.970;4.614;2024-03-23T11:53:14;17.00;75.10
17495;DHT22;8864;51.970;4.614;2024-03-23T11:55:46;17.00;74.60
17495;DHT22;8864;51.970;4.614;2024-03-23T11:58:14;17.00;74.30
17495;DHT22;8864;51.970;4.614;2024-03-23T12:00:40;17.00;73.70
17495;DHT22;8864;51.970;4.614;2024-03-23T12:03:07;17.00;73.60
17495;DHT22;8864;51.970;4.614;2024-03-23T12:05:34;17.00;73.20
17495;DHT22;8864;51.970;4.614;2024-03-23T12:08:21;17.00;73.00
17495;DHT22;8864;51.970;4.614;2024-03-23T12:10:52;16.90;72.90
17495;DHT22;8864;51.970;4.614;2024-03-23T12:13:19;16.90;73.00
17495;DHT22;8864;51.970;4.614;2024-03-23T12:15:48;17.00;72.90
17495;DHT22;8864;51.970;4.614;2024-03-23T12:18:15;17.00;72.60
17495;DHT22;8864;51.970;4.614;2024-03-23T12:20:41;17.00;72.50
17495;DHT22;8864;51.970;4.614;2024-03-23T12:23:08;17.00;72.50
17495;DHT22;8864;51.970;4.614;2024-03-23T12:25:37;17.00;72.40
17495;DHT22;8864;51.970;4.614;2024-03-23T12:28:05;17.00;72.30
17495;DHT22;8864;51.970;4.614;2024-03-23T12:30:35;16.90;72.20
17495;DHT22;8864;51.970;4.614;2024-03-23T12:33:02;16.90;72.10
17495;DHT22;8864;51.970;4.614;2024-03-23T12:35:30;17.00;72.20
17495;DHT22;8864;51.970;4.614;2024-03-23T12:37:57;16.90;72.00
17495;DHT22;8864;51.970;4.614;2024-03-23T12:40:24;17.00;72.00
17495;DHT22;8864;51.970;4.614;2024-03-23T12:42:50;16.90;71.80
17495;DHT22;8864;51.970;4.614;2024-03-23T12:45:18;16.90;71.60
17495;DHT22;8864;51.970;4.614;2024-03-23T12:47:44;17.00;72.10
17495;DHT22;8864;51.970;4.614;2024-03-23T12:50:11;16.90;71.30
17495;DHT22;8864;51.970;4.614;2024-03-23T12:52:37;16.90;71.20
17495;DHT22;8864;51.970;4.614;2024-03-23T12:55:04;17.00;71.20
17495;DHT22;8864;51.970;4.614;2024-03-23T12:57:31;16.90;71.00
17495;DHT22;8864;51.970;4.614;2024-03-23T12:59:58;16.90;70.70
17495;DHT22;8864;51.970;4.614;2024-03-23T13:02:25;16.90;70.50
17495;DHT22;8864;51.970;4.614;2024-03-23T13:04:53;16.90;70.30
17495;DHT22;8864;51.970;4.614;2024-03-23T13:07:20;16.90;70.30
17495;DHT22;8864;51.970;4.614;2024-03-23T13:09:47;16.90;70.00
17495;DHT22;8864;51.970;4.614;2024-03-23T13:12:15;16.90;70.00
17495;DHT22;8864;51.970;4.614;2024-03-23T13:14:44;16.90;70.10
17495;DHT22;8864;51.970;4.614;2024-03-23T13:17:10;16.90;70.30
17495;DHT22;8864;51.970;4.614;2024-03-23T13:19:38;17.00;70.50
17495;DHT22;8864;51.970;4.614;2024-03-23T13:22:04;17.00;70.80
17495;DHT22;8864;51.970;4.614;2024-03-23T13:24:31;17.00;70.70
17495;DHT22;8864;51.970;4.614;2024-03-23T13:26:57;17.00;70.60
17495;DHT22;8864;51.970;4.614;2024-03-23T13:29:24;17.00;70.40
17495;DHT22;8864;51.970;4.614;2024-03-23T13:31:52;17.00;70.20
17495;DHT22;8864;51.970;4.614;2024-03-23T13:34:19;17.00;70.10
17495;DHT22;8864;51.970;4.614;2024-03-23T13:36:47;17.00;70.00
17495;DHT22;8864;51.970;4.614;2024-03-23T13:39:14;17.00;69.90
17495;DHT22;8864;51.970;4.614;2024-03-23T13:41:42;16.90;69.60
17495;DHT22;8864;51.970;4.614;2024-03-23T13:44:10;16.90;69.40
17495;DHT22;8864;51.970;4.614;2024-03-23T13:46:36;16.90;69.50
17495;DHT22;8864;51.970;4.614;2024-03-23T13:49:03;16.90;69.60
17495;DHT22;8864;51.970;4.614;2024-03-23T13:51:29;16.90;69.90
17495;DHT22;8864;51.970;4.614;2024-03-23T13:53:57;16.90;70.20
17495;DHT22;8864;51.970;4.614;2024-03-23T13:56:26;16.90;70.30
17495;DHT22;8864;51.970;4.614;2024-03-23T13:58:54;16.90;71.40
17495;DHT22;8864;51.970;4.614;2024-03-23T14:01:20;16.90;70.80
17495;DHT22;8864;51.970;4.614;2024-03-23T14:03:47;16.90;70.70
17495;DHT22;8864;51.970;4.614;2024-03-23T14:06:13;16.90;70.80
17495;DHT22;8864;51.970;4.614;2024-03-23T14:08:40;16.90;71.00
17495;DHT22;8864;51.970;4.614;2024-03-23T14:11:09;16.90;71.90
17495;DHT22;8864;51.970;4.614;2024-03-23T14:13:37;16.90;71.10
17495;DHT22;8864;51.970;4.614;2024-03-23T14:16:03;16.90;71.00
17495;DHT22;8864;51.970;4.614;2024-03-23T14:18:30;16.90;70.60
17495;DHT22;8864;51.970;4.614;2024-03-23T14:20:58;16.90;70.30
17495;DHT22;8864;51.970;4.614;2024-03-23T14:23:25;16.90;70.20
17495;DHT22;8864;51.970;4.614;2024-03-23T14:25:53;17.00;70.00
17495;DHT22;8864;51.970;4.614;2024-03-23T14:28:22;17.00;69.80
17495;DHT22;8864;51.970;4.614;2024-03-23T14:30:48;17.00;69.70
17495;DHT22;8864;51.970;4.614;2024-03-23T14:33:15;17.00;70.20
17495;DHT22;8864;51.970;4.614;2024-03-23T14:35:41;17.10;71.40
17495;DHT22;8864;51.970;4.614;2024-03-23T14:38:08;17.10;71.70
17495;DHT22;8864;51.970;4.614;2024-03-23T14:40:34;17.20;71.50
17495;DHT22;8864;51.970;4.614;2024-03-23T14:43:01;17.10;70.90
17495;DHT22;8864;51.970;4.614;2024-03-23T14:45:29;17.10;70.80
17495;DHT22;8864;51.970;4.614;2024-03-23T14:47:56;17.10;70.30
17495;DHT22;8864;51.970;4.614;2024-03-23T14:50:23;17.10;70.00
17495;DHT22;8864;51.970;4.614;2024-03-23T14:52:50;17.00;69.90
17495;DHT22;8864;51.970;4.614;2024-03-23T14:55:17;17.00;69.70
17495;DHT22;8864;51.970;4.614;2024-03-23T14:57:45;17.00;69.50
17495;DHT22;8864;51.970;4.614;2024-03-23T15:00:11;17.10;69.50
17495;DHT22;8864;51.970;4.614;2024-03-23T15:02:40;17.10;69.50
17495;DHT22;8864;51.970;4.614;2024-03-23T15:05:06;17.20;69.40
17495;DHT22;8864;51.970;4.614;2024-03-23T15:07:35;17.20;69.10
17495;DHT22;8864;51.970;4.614;2024-03-23T15:10:01;17.20;68.80
17495;DHT22;8864;51.970;4.614;2024-03-23T15:12:30;17.30;68.50
17495;DHT22;8864;51.970;4.614;2024-03-23T15:14:58;17.20;68.30
17495;DHT22;8864;51.970;4.614;2024-03-23T15:17:25;17.20;68.20
17495;DHT22;8864;51.970;4.614;2024-03-23T15:19:52;17.20;68.10
17495;DHT22;8864;51.970;4.614;2024-03-23T15:22:20;17.20;67.90
17495;DHT22;8864;51.970;4.614;2024-03-23T15:24:47;17.20;67.90
17495;DHT22;8864;51.970;4.614;2024-03-23T15:27:14;17.20;67.90
17495;DHT22;8864;51.970;4.614;2024-03-23T15:29:40;17.30;68.00
17495;DHT22;8864;51.970;4.614;2024-03-23T15:32:11;17.20;68.00
17495;DHT22;8864;51.970;4.614;2024-03-23T15:34:37;17.30;69.00
17495;DHT22;8864;51.970;4.614;2024-03-23T15:37:05;17.30;68.50
17495;DHT22;8864;51.970;4.614;2024-03-23T15:39:31;17.30;68.70
17495;DHT22;8864;51.970;4.614;2024-03-23T15:41:58;17.20;68.80
17495;DHT22;8864;51.970;4.614;2024-03-23T15:44:24;17.20;69.10
17495;DHT22;8864;51.970;4.614;2024-03-23T15:46:51;17.20;70.30
17495;DHT22;8864;51.970;4.614;2024-03-23T15:49:17;17.30;70.50
17495;DHT22;8864;51.970;4.614;2024-03-23T15:51:44;17.40;70.30
17495;DHT22;8864;51.970;4.614;2024-03-23T15:54:11;17.40;70.20
17495;DHT22;8864;51.970;4.614;2024-03-23T15:56:38;17.50;70.30
17495;DHT22;8864;51.970;4.614;2024-03-23T15:59:04;17.50;70.10
17495;DHT22;8864;51.970;4.614;2024-03-23T16:01:32;17.40;69.90
17495;DHT22;8864;51.970;4.614;2024-03-23T16:03:59;17.50;69.80
17495;DHT22;8864;51.970;4.614;2024-03-23T16:06:26;17.40;69.70
17495;DHT22;8864;51.970;4.614;2024-03-23T16:08:52;17.40;69.60
17495;DHT22;8864;51.970;4.614;2024-03-23T16:11:20;17.30;69.60
17495;DHT22;8864;51.970;4.614;2024-03-23T16:13:46;17.30;69.40
17495;DHT22;8864;51.970;4.614;2024-03-23T16:16:13;17.30;69.40
17495;DHT22;8864;51.970;4.614;2024-03-23T16:18:39;17.30;69.40
17495;DHT22;8864;51.970;4.614;2024-03-23T16:21:07;17.30;69.40
17495;DHT22;8864;51.970;4.614;2024-03-23T16:23:33;17.30;69.40
17495;DHT22;8864;51.970;4.614;2024-03-23T16:26:03;17.30;69.30
17495;DHT22;8864;51.970;4.614;2024-03-23T16:28:31;17.30;69.40
17495;DHT22;8864;51.970;4.614;2024-03-23T16:31:00;17.30;69.40
17495;DHT22;8864;51.970;4.614;2024-03-23T16:33:27;17.30;69.60
17495;DHT22;8864;51.970;4.614;2024-03-23T16:35:58;17.30;69.70
17495;DHT22;8864;51.970;4.614;2024-03-23T16:38:24;17.20;69.60